createdAt,value
2022-07-31T00:00:46.686Z,0
2022-07-31T00:01:55.859Z,0
2022-07-31T00:03:05.026Z,0
2022-07-31T00:04:14.209Z,1
2022-07-31T00:05:23.378Z,1
2022-07-31T00:06:32.548Z,0
2022-07-31T00:07:41.720Z,0
2022-07-31T00:08:50.888Z,0
2022-07-31T00:10:00.075Z,6
2022-07-31T00:11:08.268Z,6
2022-07-31T00:12:17.427Z,6
2022-07-31T00:13:26.622Z,6
2022-07-31T00:14:35.789Z,15
2022-07-31T00:15:44.950Z,13
2022-07-31T00:16:54.120Z,12
2022-07-31T00:18:03.292Z,10
2022-07-31T00:19:12.471Z,12
2022-07-31T00:20:21.636Z,11
2022-07-31T00:21:30.842Z,12
2022-07-31T00:22:39.989Z,12
2022-07-31T00:23:49.163Z,13
2022-07-31T00:24:58.318Z,16
2022-07-31T00:26:07.495Z,12
2022-07-31T00:27:16.667Z,12
2022-07-31T00:28:24.862Z,12
2022-07-31T00:29:34.036Z,13
2022-07-31T00:30:43.209Z,11
2022-07-31T00:31:52.374Z,12
2022-07-31T00:33:01.556Z,288
2022-07-31T00:34:10.720Z,199
2022-07-31T00:35:19.894Z,173
2022-07-31T00:36:29.067Z,174
2022-07-31T00:37:38.234Z,168
2022-07-31T00:38:47.400Z,168
2022-07-31T00:39:56.578Z,166
2022-07-31T00:41:05.752Z,133
2022-07-31T00:42:14.926Z,135
2022-07-31T00:43:23.107Z,135
2022-07-31T00:44:32.284Z,135
2022-07-31T00:45:41.456Z,135
2022-07-31T00:46:50.621Z,135
2022-07-31T00:47:59.801Z,135
2022-07-31T00:49:08.973Z,135
2022-07-31T00:50:18.152Z,108
2022-07-31T00:51:27.328Z,108
2022-07-31T00:52:36.495Z,107
2022-07-31T00:53:45.678Z,108
2022-07-31T00:54:54.829Z,108
2022-07-31T00:56:04.008Z,107
2022-07-31T00:57:13.179Z,108
2022-07-31T00:58:22.355Z,116
2022-07-31T00:59:30.547Z,126
2022-07-31T01:00:39.706Z,160
2022-07-31T01:01:48.891Z,173
2022-07-31T01:02:58.067Z,154
2022-07-31T01:04:07.228Z,167
2022-07-31T01:05:16.410Z,163
2022-07-31T01:06:25.570Z,163
2022-07-31T01:07:34.753Z,151
2022-07-31T01:08:43.925Z,172
2022-07-31T01:09:53.098Z,148
2022-07-31T01:11:02.265Z,166
2022-07-31T01:12:11.441Z,175
2022-07-31T01:13:20.618Z,177
2022-07-31T01:14:28.795Z,164
2022-07-31T01:15:37.973Z,149
2022-07-31T01:16:47.145Z,163
2022-07-31T01:17:56.315Z,164
2022-07-31T01:19:05.484Z,152
2022-07-31T01:20:14.654Z,151
2022-07-31T01:21:23.837Z,150
2022-07-31T01:22:32.999Z,152
2022-07-31T01:23:42.170Z,151
2022-07-31T01:24:51.351Z,182
2022-07-31T01:26:00.529Z,155
2022-07-31T01:27:09.697Z,157
2022-07-31T01:28:18.868Z,143
2022-07-31T01:29:27.146Z,151
2022-07-31T01:30:36.225Z,148
2022-07-31T01:31:45.414Z,148
2022-07-31T01:32:54.562Z,149
2022-07-31T01:34:03.757Z,134
2022-07-31T01:35:12.922Z,139
2022-07-31T01:36:22.090Z,173
2022-07-31T01:37:31.266Z,174
2022-07-31T01:38:40.438Z,165
2022-07-31T01:39:49.611Z,156
2022-07-31T01:40:58.780Z,149
2022-07-31T01:42:07.949Z,115
2022-07-31T01:43:17.119Z,139
2022-07-31T01:44:25.306Z,138
2022-07-31T01:45:34.491Z,139
2022-07-31T01:46:43.655Z,140
2022-07-31T01:47:52.827Z,154
2022-07-31T01:49:01.990Z,154
2022-07-31T01:50:11.166Z,154
2022-07-31T01:51:20.350Z,152
2022-07-31T01:52:29.523Z,148
2022-07-31T01:53:38.694Z,156
2022-07-31T01:54:47.861Z,157
2022-07-31T01:55:57.062Z,138
2022-07-31T01:57:06.206Z,139
2022-07-31T01:58:15.383Z,138
2022-07-31T01:59:23.573Z,145
2022-07-31T02:00:31.767Z,133
2022-07-31T02:01:39.963Z,158
2022-07-31T02:02:49.128Z,156
2022-07-31T02:03:58.313Z,155
2022-07-31T02:05:07.465Z,144
2022-07-31T02:06:16.641Z,144
2022-07-31T02:07:25.810Z,139
2022-07-31T02:08:34.993Z,139
2022-07-31T02:09:44.158Z,138
2022-07-31T02:10:53.323Z,138
2022-07-31T02:12:02.497Z,138
2022-07-31T02:13:11.673Z,138
2022-07-31T02:14:19.873Z,139
2022-07-31T02:15:28.054Z,137
2022-07-31T02:16:37.238Z,137
2022-07-31T02:17:46.412Z,139
2022-07-31T02:18:55.576Z,139
2022-07-31T02:20:04.750Z,171
2022-07-31T02:21:13.921Z,169
2022-07-31T02:22:23.104Z,163
2022-07-31T02:23:32.277Z,186
2022-07-31T02:24:41.445Z,183
2022-07-31T02:25:50.627Z,174
2022-07-31T02:26:59.776Z,191
2022-07-31T02:28:08.958Z,160
2022-07-31T02:29:18.129Z,155
2022-07-31T02:30:26.317Z,159
2022-07-31T02:31:35.496Z,158
2022-07-31T02:32:44.671Z,144
2022-07-31T02:33:53.835Z,147
2022-07-31T02:35:03.010Z,135
2022-07-31T02:36:12.188Z,151
2022-07-31T02:37:21.356Z,151
2022-07-31T02:38:29.558Z,151
2022-07-31T02:39:37.733Z,152
2022-07-31T02:40:46.904Z,151
2022-07-31T02:41:56.088Z,150
2022-07-31T02:43:05.257Z,152
2022-07-31T02:44:14.430Z,151
2022-07-31T02:45:23.610Z,151
2022-07-31T02:46:32.779Z,151
2022-07-31T02:47:40.958Z,151
2022-07-31T02:48:49.164Z,152
2022-07-31T02:49:57.343Z,151
2022-07-31T02:51:06.529Z,151
2022-07-31T02:52:15.698Z,152
2022-07-31T02:53:24.871Z,151
2022-07-31T02:54:34.040Z,152
2022-07-31T02:55:43.206Z,151
2022-07-31T02:56:52.386Z,152
2022-07-31T02:58:01.561Z,151
2022-07-31T02:59:10.727Z,168
2022-07-31T03:00:19.905Z,169
2022-07-31T03:01:29.083Z,169
2022-07-31T03:02:38.248Z,168
2022-07-31T03:03:47.418Z,168
2022-07-31T03:04:55.607Z,168
2022-07-31T03:06:04.788Z,167
2022-07-31T03:07:13.952Z,168
2022-07-31T03:08:23.131Z,167
2022-07-31T03:09:32.304Z,168
2022-07-31T03:10:41.476Z,168
2022-07-31T03:11:50.637Z,167
2022-07-31T03:12:59.816Z,167
2022-07-31T03:14:08.991Z,168
2022-07-31T03:15:18.175Z,168
2022-07-31T03:16:27.335Z,168
2022-07-31T03:17:36.501Z,168
2022-07-31T03:18:45.673Z,168
2022-07-31T03:19:53.871Z,168
2022-07-31T03:21:03.048Z,167
2022-07-31T03:22:12.215Z,167
2022-07-31T03:23:21.413Z,168
2022-07-31T03:24:30.558Z,169
2022-07-31T03:25:39.731Z,168
2022-07-31T03:26:48.919Z,167
2022-07-31T03:27:58.092Z,168
2022-07-31T03:29:07.244Z,168
2022-07-31T03:30:16.430Z,167
2022-07-31T03:31:25.592Z,169
2022-07-31T03:32:34.763Z,168
2022-07-31T03:33:43.959Z,168
2022-07-31T03:34:52.121Z,168
2022-07-31T03:36:01.298Z,167
2022-07-31T03:37:10.469Z,168
2022-07-31T03:38:19.644Z,168
2022-07-31T03:39:28.811Z,167
2022-07-31T03:40:37.995Z,169
2022-07-31T03:41:47.159Z,169
2022-07-31T03:42:56.330Z,168
2022-07-31T03:44:05.500Z,168
2022-07-31T03:45:14.678Z,169
2022-07-31T03:46:23.853Z,168
2022-07-31T03:47:33.040Z,168
2022-07-31T03:48:42.196Z,168
2022-07-31T03:49:50.377Z,168
2022-07-31T03:50:59.568Z,168
2022-07-31T03:52:08.720Z,168
2022-07-31T03:53:17.903Z,168
2022-07-31T03:54:27.132Z,168
2022-07-31T03:55:36.244Z,167
2022-07-31T03:56:45.418Z,168
2022-07-31T03:57:54.599Z,169
2022-07-31T03:59:03.767Z,168
2022-07-31T04:00:12.940Z,168
2022-07-31T04:01:22.111Z,168
2022-07-31T04:02:31.279Z,167
2022-07-31T04:03:40.458Z,168
2022-07-31T04:04:48.642Z,168
2022-07-31T04:05:57.811Z,168
2022-07-31T04:07:06.985Z,168
2022-07-31T04:08:16.151Z,168
2022-07-31T04:09:25.345Z,168
2022-07-31T04:10:34.507Z,168
2022-07-31T04:11:43.678Z,167
2022-07-31T04:12:52.846Z,168
2022-07-31T04:14:02.020Z,168
2022-07-31T04:15:11.191Z,168
2022-07-31T04:16:20.363Z,167
2022-07-31T04:17:29.562Z,168
2022-07-31T04:18:37.731Z,169
2022-07-31T04:19:45.929Z,168
2022-07-31T04:20:54.109Z,168
2022-07-31T04:22:02.349Z,168
2022-07-31T04:23:11.477Z,168
2022-07-31T04:24:20.642Z,168
2022-07-31T04:25:29.824Z,167
2022-07-31T04:26:38.995Z,168
2022-07-31T04:27:48.158Z,168
2022-07-31T04:28:57.333Z,168
2022-07-31T04:30:06.506Z,168
2022-07-31T04:31:15.671Z,169
2022-07-31T04:32:24.861Z,169
2022-07-31T04:33:34.023Z,167
2022-07-31T04:34:43.197Z,140
2022-07-31T04:35:52.377Z,140
2022-07-31T04:37:00.563Z,140
2022-07-31T04:38:09.737Z,105
2022-07-31T04:39:18.941Z,105
2022-07-31T04:40:28.073Z,104
2022-07-31T04:41:37.243Z,103
2022-07-31T04:42:46.426Z,104
2022-07-31T04:43:55.597Z,105
2022-07-31T04:45:04.774Z,119
2022-07-31T04:46:13.960Z,124
2022-07-31T04:47:23.111Z,124
2022-07-31T04:48:32.282Z,124
2022-07-31T04:49:41.464Z,124
2022-07-31T04:50:50.639Z,124
2022-07-31T04:51:58.833Z,123
2022-07-31T04:53:07.018Z,127
2022-07-31T04:54:16.184Z,128
2022-07-31T04:55:25.360Z,128
2022-07-31T04:56:34.540Z,132
2022-07-31T04:57:42.723Z,132
2022-07-31T04:58:50.924Z,132
2022-07-31T05:00:00.124Z,136
2022-07-31T05:01:09.262Z,178
2022-07-31T05:02:18.428Z,171
2022-07-31T05:03:27.606Z,164
2022-07-31T05:04:36.780Z,162
2022-07-31T05:05:45.952Z,152
2022-07-31T05:06:55.122Z,133
2022-07-31T05:08:04.300Z,156
2022-07-31T05:09:13.473Z,169
2022-07-31T05:10:22.643Z,142
2022-07-31T05:11:31.811Z,166
2022-07-31T05:12:40.997Z,134
2022-07-31T05:13:49.177Z,159
2022-07-31T05:14:58.344Z,157
2022-07-31T05:16:07.523Z,145
2022-07-31T05:17:16.703Z,171
2022-07-31T05:18:25.868Z,160
2022-07-31T05:19:35.082Z,160
2022-07-31T05:20:44.216Z,133
2022-07-31T05:21:52.413Z,149
2022-07-31T05:23:00.593Z,161
2022-07-31T05:24:08.821Z,157
2022-07-31T05:25:16.983Z,154
2022-07-31T05:26:26.153Z,148
2022-07-31T05:27:35.325Z,119
2022-07-31T05:28:44.499Z,175
2022-07-31T05:29:53.689Z,149
2022-07-31T05:31:02.842Z,151
2022-07-31T05:32:12.015Z,132
2022-07-31T05:33:21.177Z,179
2022-07-31T05:34:30.358Z,150
2022-07-31T05:35:39.534Z,156
2022-07-31T05:36:48.699Z,171
2022-07-31T05:37:57.878Z,162
2022-07-31T05:39:07.054Z,163
2022-07-31T05:40:15.233Z,144
2022-07-31T05:41:24.411Z,147
2022-07-31T05:42:33.584Z,136
2022-07-31T05:43:42.746Z,117
2022-07-31T05:44:51.918Z,152
2022-07-31T05:46:01.105Z,142
2022-07-31T05:47:10.385Z,134
2022-07-31T05:48:19.432Z,140
2022-07-31T05:49:28.616Z,141
2022-07-31T05:50:37.782Z,122
2022-07-31T05:51:46.953Z,189
2022-07-31T05:52:56.122Z,144
2022-07-31T05:54:05.291Z,136
2022-07-31T05:55:14.463Z,120
2022-07-31T05:56:22.655Z,143
2022-07-31T05:57:31.836Z,108
2022-07-31T05:58:41.007Z,129
2022-07-31T05:59:50.177Z,130
2022-07-31T06:00:59.349Z,146
2022-07-31T06:02:08.524Z,141
2022-07-31T06:03:17.690Z,135
2022-07-31T06:04:26.875Z,144
2022-07-31T06:05:36.035Z,171
2022-07-31T06:06:45.202Z,90
2022-07-31T06:07:54.397Z,151
2022-07-31T06:09:03.547Z,183
2022-07-31T06:10:12.714Z,166
2022-07-31T06:11:20.905Z,123
2022-07-31T06:13:39.259Z,150
2022-07-31T06:14:48.437Z,123
2022-07-31T06:15:57.608Z,144
2022-07-31T06:17:06.773Z,120
2022-07-31T06:18:15.944Z,128
2022-07-31T06:19:25.121Z,116
2022-07-31T06:20:34.285Z,135
2022-07-31T06:21:43.462Z,163
2022-07-31T06:22:52.632Z,190
2022-07-31T06:24:01.814Z,149
2022-07-31T06:25:10.970Z,159
2022-07-31T06:26:19.162Z,170
2022-07-31T06:27:28.338Z,116
2022-07-31T06:28:37.520Z,177
2022-07-31T06:29:46.691Z,188
2022-07-31T06:30:55.851Z,154
2022-07-31T06:32:05.040Z,162
2022-07-31T06:33:14.212Z,150
2022-07-31T06:34:23.422Z,185
2022-07-31T06:35:32.544Z,133
2022-07-31T06:36:41.720Z,148
2022-07-31T06:37:50.886Z,164
2022-07-31T06:38:59.090Z,155
2022-07-31T06:40:08.274Z,123
2022-07-31T06:41:17.436Z,128
2022-07-31T06:42:26.596Z,145
2022-07-31T06:43:35.787Z,140
2022-07-31T06:44:44.951Z,160
2022-07-31T06:45:54.109Z,140
2022-07-31T06:47:03.290Z,164
2022-07-31T06:48:12.467Z,150
2022-07-31T06:49:21.632Z,153
2022-07-31T06:50:30.808Z,179
2022-07-31T06:51:39.981Z,158
2022-07-31T06:52:49.146Z,144
2022-07-31T06:53:57.341Z,194
2022-07-31T06:55:06.527Z,171
2022-07-31T06:56:15.679Z,170
2022-07-31T06:57:24.859Z,174
2022-07-31T06:58:34.020Z,200
2022-07-31T06:59:43.191Z,167
2022-07-31T07:00:52.385Z,169
2022-07-31T07:02:01.555Z,173
2022-07-31T07:03:10.720Z,149
2022-07-31T07:04:19.895Z,189
2022-07-31T07:05:29.059Z,203
2022-07-31T07:06:38.240Z,160
2022-07-31T07:07:46.451Z,190
2022-07-31T07:08:54.616Z,168
2022-07-31T07:10:03.792Z,180
2022-07-31T07:11:12.952Z,201
2022-07-31T07:12:22.131Z,201
2022-07-31T07:13:31.307Z,187
2022-07-31T07:14:40.487Z,187
2022-07-31T07:15:49.651Z,182
2022-07-31T07:16:57.852Z,208
2022-07-31T07:18:06.035Z,172
2022-07-31T07:19:15.205Z,173
2022-07-31T07:20:24.377Z,108
2022-07-31T07:21:33.558Z,167
2022-07-31T07:22:42.726Z,181
2022-07-31T07:23:51.915Z,178
2022-07-31T07:25:01.061Z,191
2022-07-31T07:26:10.239Z,150
2022-07-31T07:27:19.415Z,192
2022-07-31T07:28:28.580Z,168
2022-07-31T07:29:37.769Z,169
2022-07-31T07:30:46.934Z,191
2022-07-31T07:31:56.101Z,196
2022-07-31T07:33:04.306Z,208
2022-07-31T07:34:13.460Z,192
2022-07-31T07:35:22.630Z,190
2022-07-31T07:36:31.801Z,155
2022-07-31T07:37:40.972Z,166
2022-07-31T07:38:50.156Z,159
2022-07-31T07:39:59.339Z,166
2022-07-31T07:41:07.514Z,189
2022-07-31T07:42:15.721Z,216
2022-07-31T07:43:24.884Z,185
2022-07-31T07:44:34.064Z,175
2022-07-31T07:45:42.251Z,176
2022-07-31T07:46:50.436Z,189
2022-07-31T07:47:59.606Z,190
2022-07-31T07:49:08.777Z,182
2022-07-31T07:50:17.955Z,134
2022-07-31T07:51:27.116Z,179
2022-07-31T07:52:36.300Z,204
2022-07-31T07:53:45.469Z,156
2022-07-31T07:54:54.638Z,154
2022-07-31T07:56:03.817Z,132
2022-07-31T07:57:12.978Z,179
2022-07-31T07:58:22.158Z,156
2022-07-31T07:59:31.342Z,184
2022-07-31T08:00:40.501Z,176
2022-07-31T08:01:48.703Z,199
2022-07-31T08:04:07.036Z,180
2022-07-31T08:05:16.212Z,167
2022-07-31T08:06:25.380Z,165
2022-07-31T08:07:34.560Z,173
2022-07-31T08:08:43.727Z,170
2022-07-31T08:09:52.898Z,166
2022-07-31T08:11:02.076Z,185
2022-07-31T08:12:11.248Z,155
2022-07-31T08:13:20.423Z,163
2022-07-31T08:14:29.592Z,186
2022-07-31T08:15:38.762Z,194
2022-07-31T08:16:46.949Z,163
2022-07-31T08:17:56.128Z,156
2022-07-31T08:19:05.299Z,181
2022-07-31T08:20:14.472Z,181
2022-07-31T08:21:23.663Z,150
2022-07-31T08:22:32.822Z,165
2022-07-31T08:23:41.980Z,174
2022-07-31T08:24:51.161Z,209
2022-07-31T08:26:00.332Z,167
2022-07-31T08:27:09.503Z,184
2022-07-31T08:28:18.683Z,171
2022-07-31T08:29:27.848Z,163
2022-07-31T08:30:37.025Z,163
2022-07-31T08:31:45.213Z,217
2022-07-31T08:32:54.380Z,174
2022-07-31T08:34:03.561Z,209
2022-07-31T08:35:12.724Z,170
2022-07-31T08:36:21.895Z,198
2022-07-31T08:37:31.069Z,161
2022-07-31T08:38:40.251Z,149
2022-07-31T08:39:49.412Z,205
2022-07-31T08:40:58.591Z,146
2022-07-31T08:42:07.797Z,163
2022-07-31T08:43:16.928Z,210
2022-07-31T08:44:26.106Z,202
2022-07-31T08:45:35.272Z,179
2022-07-31T08:46:44.450Z,190
2022-07-31T08:47:52.648Z,191
2022-07-31T08:49:01.811Z,156
2022-07-31T08:50:10.971Z,170
2022-07-31T08:51:20.160Z,168
2022-07-31T08:52:29.325Z,157
2022-07-31T08:53:38.501Z,192
2022-07-31T08:54:47.676Z,153
2022-07-31T08:55:56.846Z,194
2022-07-31T08:57:06.013Z,145
2022-07-31T08:58:15.185Z,139
2022-07-31T08:59:24.369Z,162
2022-07-31T09:00:33.515Z,216
2022-07-31T09:01:42.699Z,189
2022-07-31T09:02:50.891Z,195
2022-07-31T09:04:00.062Z,174
2022-07-31T09:05:09.237Z,236
2022-07-31T09:06:18.407Z,174
2022-07-31T09:07:27.574Z,183
2022-07-31T09:08:36.747Z,183
2022-07-31T09:09:45.938Z,167
2022-07-31T09:10:55.094Z,163
2022-07-31T09:12:04.258Z,160
2022-07-31T09:14:22.604Z,192
2022-07-31T09:15:31.786Z,185
2022-07-31T09:16:40.957Z,173
2022-07-31T09:17:49.145Z,161
2022-07-31T09:18:58.310Z,141
2022-07-31T09:20:06.512Z,187
2022-07-31T09:21:14.696Z,194
2022-07-31T09:22:23.876Z,196
2022-07-31T09:23:33.044Z,194
2022-07-31T09:24:42.223Z,164
2022-07-31T09:25:50.416Z,183
2022-07-31T09:26:58.598Z,130
2022-07-31T09:28:07.787Z,178
2022-07-31T09:29:16.950Z,124
2022-07-31T09:30:26.111Z,165
2022-07-31T09:31:35.294Z,159
2022-07-31T09:32:44.486Z,193
2022-07-31T09:33:53.638Z,168
2022-07-31T09:35:02.806Z,130
2022-07-31T09:36:12.002Z,183
2022-07-31T09:37:21.155Z,169
2022-07-31T09:38:30.326Z,167
2022-07-31T09:39:39.499Z,242
2022-07-31T09:40:48.668Z,221
2022-07-31T09:41:56.881Z,147
2022-07-31T09:43:06.030Z,139
2022-07-31T09:44:15.197Z,134
2022-07-31T09:45:24.378Z,210
2022-07-31T09:46:33.544Z,166
2022-07-31T09:47:42.746Z,178
2022-07-31T09:48:51.888Z,215
2022-07-31T09:50:01.070Z,154
2022-07-31T09:51:10.241Z,183
2022-07-31T09:52:19.412Z,111
2022-07-31T09:53:28.579Z,187
2022-07-31T09:54:37.760Z,177
2022-07-31T09:55:46.926Z,207
2022-07-31T09:56:55.112Z,155
2022-07-31T09:58:04.295Z,215
2022-07-31T09:59:13.477Z,203
2022-07-31T10:00:22.635Z,215
2022-07-31T10:01:31.812Z,133
2022-07-31T10:02:40.985Z,216
2022-07-31T10:03:50.155Z,211
2022-07-31T10:04:59.329Z,160
2022-07-31T10:06:07.520Z,195
2022-07-31T10:07:15.703Z,200
2022-07-31T10:08:24.876Z,179
2022-07-31T10:09:34.044Z,163
2022-07-31T10:10:43.225Z,163
2022-07-31T10:11:52.401Z,152
2022-07-31T10:13:01.573Z,211
2022-07-31T10:14:10.751Z,127
2022-07-31T10:15:19.921Z,190
2022-07-31T10:16:29.085Z,192
2022-07-31T10:17:38.251Z,154
2022-07-31T10:18:47.423Z,194
2022-07-31T10:19:56.602Z,135
2022-07-31T10:21:05.773Z,157
2022-07-31T10:22:14.958Z,214
2022-07-31T10:23:23.134Z,185
2022-07-31T10:24:32.312Z,217
2022-07-31T10:25:41.486Z,162
2022-07-31T10:26:50.657Z,192
2022-07-31T10:27:59.832Z,177
2022-07-31T10:29:09.004Z,204
2022-07-31T10:30:17.196Z,170
2022-07-31T10:31:25.396Z,155
2022-07-31T10:32:33.585Z,165
2022-07-31T10:33:41.777Z,161
2022-07-31T10:34:50.951Z,196
2022-07-31T10:36:00.119Z,157
2022-07-31T10:37:09.294Z,162
2022-07-31T10:38:18.477Z,182
2022-07-31T10:39:27.638Z,135
2022-07-31T10:40:36.809Z,163
2022-07-31T10:41:45.982Z,202
2022-07-31T10:42:55.159Z,145
2022-07-31T10:44:04.313Z,168
2022-07-31T10:45:13.492Z,192
2022-07-31T10:46:22.668Z,173
2022-07-31T10:47:31.840Z,183
2022-07-31T10:48:40.046Z,187
2022-07-31T10:49:49.195Z,212
2022-07-31T10:50:58.377Z,226
2022-07-31T10:52:07.548Z,143
2022-07-31T10:53:16.721Z,196
2022-07-31T10:54:25.885Z,143
2022-07-31T10:55:35.063Z,197
2022-07-31T10:56:44.252Z,174
2022-07-31T10:57:53.406Z,201
2022-07-31T10:59:01.610Z,159
2022-07-31T11:00:09.791Z,221
2022-07-31T11:01:18.953Z,205
2022-07-31T11:02:28.134Z,168
2022-07-31T11:03:37.312Z,190
2022-07-31T11:04:46.501Z,181
2022-07-31T11:05:55.653Z,174
2022-07-31T11:07:04.815Z,168
2022-07-31T11:08:13.022Z,178
2022-07-31T11:09:21.214Z,195
2022-07-31T11:10:30.382Z,177
2022-07-31T11:11:39.557Z,175
2022-07-31T11:12:48.731Z,171
2022-07-31T11:13:57.894Z,210
2022-07-31T11:15:07.065Z,135
2022-07-31T11:16:16.246Z,161
2022-07-31T11:17:25.422Z,163
2022-07-31T11:18:34.595Z,222
2022-07-31T11:19:43.759Z,174
2022-07-31T11:20:52.935Z,169
2022-07-31T11:22:02.101Z,142
2022-07-31T11:23:11.272Z,181
2022-07-31T11:24:19.464Z,164
2022-07-31T11:25:28.641Z,151
2022-07-31T11:26:37.817Z,172
2022-07-31T11:28:56.153Z,198
2022-07-31T11:30:05.327Z,207
2022-07-31T11:31:14.504Z,190
2022-07-31T11:32:23.671Z,199
2022-07-31T11:33:32.857Z,142
2022-07-31T11:34:42.022Z,176
2022-07-31T11:35:51.186Z,196
2022-07-31T11:37:00.366Z,149
2022-07-31T11:38:09.542Z,207
2022-07-31T11:39:17.725Z,178
2022-07-31T11:40:26.896Z,183
2022-07-31T11:41:36.070Z,209
2022-07-31T11:42:45.240Z,161
2022-07-31T11:43:54.419Z,176
2022-07-31T11:45:03.593Z,216
2022-07-31T11:46:12.760Z,165
2022-07-31T11:47:21.931Z,153
2022-07-31T11:48:31.104Z,194
2022-07-31T11:49:40.272Z,152
2022-07-31T11:50:49.445Z,243
2022-07-31T11:51:58.614Z,173
2022-07-31T11:53:07.792Z,182
2022-07-31T11:54:15.980Z,181
2022-07-31T11:55:25.151Z,191
2022-07-31T11:56:34.368Z,200
2022-07-31T11:57:43.499Z,183
2022-07-31T11:58:52.669Z,154
2022-07-31T12:00:01.848Z,179
2022-07-31T12:01:11.011Z,135
2022-07-31T12:02:20.185Z,175
2022-07-31T12:03:29.351Z,183
2022-07-31T12:04:38.532Z,187
2022-07-31T12:05:47.713Z,169
2022-07-31T12:06:56.873Z,208
2022-07-31T12:08:06.055Z,175
2022-07-31T12:09:14.245Z,202
2022-07-31T12:10:23.409Z,170
2022-07-31T12:11:32.582Z,164
2022-07-31T12:12:41.763Z,174
2022-07-31T12:13:50.980Z,200
2022-07-31T12:15:00.109Z,166
2022-07-31T12:16:09.286Z,146
2022-07-31T12:17:18.454Z,172
2022-07-31T12:18:27.622Z,218
2022-07-31T12:19:36.793Z,181
2022-07-31T12:20:44.981Z,168
2022-07-31T12:21:53.170Z,189
2022-07-31T12:23:01.359Z,161
2022-07-31T12:24:09.547Z,174
2022-07-31T12:25:18.729Z,195
2022-07-31T12:26:27.900Z,151
2022-07-31T12:27:37.063Z,176
2022-07-31T12:28:46.241Z,175
2022-07-31T12:29:55.418Z,187
2022-07-31T12:31:04.596Z,182
2022-07-31T12:32:13.753Z,184
2022-07-31T12:33:22.920Z,183
2022-07-31T12:34:32.102Z,200
2022-07-31T12:35:41.278Z,178
2022-07-31T12:36:50.441Z,158
2022-07-31T12:37:59.616Z,210
2022-07-31T12:39:07.807Z,139
2022-07-31T12:40:16.986Z,213
2022-07-31T12:42:35.326Z,193
2022-07-31T12:43:44.498Z,190
2022-07-31T12:44:53.673Z,152
2022-07-31T12:46:02.846Z,172
2022-07-31T12:47:12.022Z,175
2022-07-31T12:48:21.189Z,151
2022-07-31T12:49:29.396Z,215
2022-07-31T12:50:37.571Z,185
2022-07-31T12:51:46.744Z,164
2022-07-31T12:52:55.921Z,179
2022-07-31T12:54:04.118Z,186
2022-07-31T12:55:12.305Z,159
2022-07-31T12:56:21.466Z,174
2022-07-31T12:57:30.644Z,182
2022-07-31T12:58:39.816Z,202
2022-07-31T12:59:48.988Z,167
2022-07-31T13:00:58.174Z,203
2022-07-31T13:02:07.346Z,181
2022-07-31T13:03:16.511Z,142
2022-07-31T13:04:25.676Z,171
2022-07-31T13:05:34.870Z,110
2022-07-31T13:06:44.019Z,183
2022-07-31T13:07:53.202Z,192
2022-07-31T13:09:02.373Z,188
2022-07-31T13:10:10.557Z,200
2022-07-31T13:11:19.736Z,177
2022-07-31T13:12:28.905Z,181
2022-07-31T13:13:38.079Z,169
2022-07-31T13:14:47.243Z,191
2022-07-31T13:15:56.419Z,196
2022-07-31T13:17:05.589Z,157
2022-07-31T13:18:14.786Z,145
2022-07-31T13:19:23.937Z,163
2022-07-31T13:20:33.110Z,168
2022-07-31T13:21:42.286Z,188
2022-07-31T13:22:51.449Z,170
2022-07-31T13:24:00.618Z,177
2022-07-31T13:25:08.818Z,148
2022-07-31T13:26:17.979Z,187
2022-07-31T13:27:27.154Z,183
2022-07-31T13:28:36.334Z,183
2022-07-31T13:29:45.496Z,181
2022-07-31T13:30:54.677Z,156
2022-07-31T13:32:03.846Z,147
2022-07-31T13:33:13.015Z,182
2022-07-31T13:34:22.188Z,218
2022-07-31T13:35:31.374Z,184
2022-07-31T13:36:40.528Z,171
2022-07-31T13:37:49.710Z,173
2022-07-31T13:38:58.883Z,227
2022-07-31T13:40:07.082Z,208
2022-07-31T13:41:16.252Z,160
2022-07-31T13:42:25.418Z,140
2022-07-31T13:43:34.589Z,149
2022-07-31T13:44:43.756Z,162
2022-07-31T13:45:52.927Z,174
2022-07-31T13:47:02.101Z,181
2022-07-31T13:48:11.278Z,160
2022-07-31T13:49:20.446Z,170
2022-07-31T13:50:29.613Z,161
2022-07-31T13:51:38.784Z,198
2022-07-31T13:52:47.967Z,214
2022-07-31T13:53:57.134Z,193
2022-07-31T13:55:05.338Z,178
2022-07-31T13:56:14.494Z,219
2022-07-31T13:57:23.662Z,168
2022-07-31T13:58:32.837Z,163
2022-07-31T13:59:42.007Z,163
2022-07-31T14:00:51.187Z,159
2022-07-31T14:02:00.354Z,171
2022-07-31T14:03:09.527Z,196
2022-07-31T14:04:18.698Z,112
2022-07-31T14:05:27.869Z,175
2022-07-31T14:06:37.041Z,170
2022-07-31T14:07:46.219Z,163
2022-07-31T14:08:55.392Z,140
2022-07-31T14:10:03.594Z,133
2022-07-31T14:11:12.761Z,145
2022-07-31T14:12:21.918Z,162
2022-07-31T14:13:31.086Z,176
2022-07-31T14:14:40.264Z,198
2022-07-31T14:15:49.466Z,185
2022-07-31T14:16:58.607Z,214
2022-07-31T14:18:07.782Z,218
2022-07-31T14:19:16.952Z,196
2022-07-31T14:20:26.133Z,185
2022-07-31T14:21:34.331Z,201
2022-07-31T14:22:43.488Z,193
2022-07-31T14:23:52.672Z,205
2022-07-31T14:25:01.843Z,132
2022-07-31T14:26:11.012Z,190
2022-07-31T14:27:20.179Z,157
2022-07-31T14:28:29.348Z,170
2022-07-31T14:29:38.526Z,187
2022-07-31T14:30:47.706Z,174
2022-07-31T14:31:56.878Z,187
2022-07-31T14:33:06.052Z,183
2022-07-31T14:34:15.234Z,160
2022-07-31T14:35:24.394Z,183
2022-07-31T14:36:32.586Z,149
2022-07-31T14:37:41.770Z,176
2022-07-31T14:38:50.934Z,183
2022-07-31T14:40:00.112Z,199
2022-07-31T14:41:09.271Z,138
2022-07-31T14:42:18.440Z,165
2022-07-31T14:43:27.621Z,153
2022-07-31T14:44:36.790Z,162
2022-07-31T14:45:45.955Z,160
2022-07-31T14:46:55.133Z,159
2022-07-31T14:48:04.300Z,176
2022-07-31T14:49:13.477Z,192
2022-07-31T14:50:22.649Z,184
2022-07-31T14:52:40.008Z,152
2022-07-31T14:53:49.184Z,185
2022-07-31T14:54:58.353Z,198
2022-07-31T14:56:07.527Z,151
2022-07-31T14:57:16.698Z,170
2022-07-31T14:58:25.869Z,171
2022-07-31T14:59:35.043Z,150
2022-07-31T15:00:44.238Z,169
2022-07-31T15:01:53.392Z,156
2022-07-31T15:03:02.565Z,170
2022-07-31T15:04:11.769Z,150
2022-07-31T15:05:20.904Z,186
2022-07-31T15:06:29.088Z,181
2022-07-31T15:07:38.270Z,178
2022-07-31T15:08:47.437Z,174
2022-07-31T15:09:56.609Z,179
2022-07-31T15:11:05.781Z,188
2022-07-31T15:12:14.953Z,210
2022-07-31T15:13:24.130Z,173
2022-07-31T15:14:33.311Z,164
2022-07-31T15:15:42.475Z,161
2022-07-31T15:16:51.647Z,228
2022-07-31T15:18:00.816Z,164
2022-07-31T15:19:09.016Z,191
2022-07-31T15:20:17.199Z,164
2022-07-31T15:21:25.399Z,199
2022-07-31T15:22:33.581Z,168
2022-07-31T15:23:42.762Z,194
2022-07-31T15:24:51.924Z,209
2022-07-31T15:26:01.108Z,192
2022-07-31T15:27:10.263Z,147
2022-07-31T15:28:19.439Z,122
2022-07-31T15:29:28.621Z,219
2022-07-31T15:30:37.790Z,184
2022-07-31T15:31:46.959Z,185
2022-07-31T15:32:56.131Z,168
2022-07-31T15:34:05.305Z,187
2022-07-31T15:35:14.488Z,189
2022-07-31T15:36:23.654Z,206
2022-07-31T15:37:31.839Z,223
2022-07-31T15:38:41.011Z,168
2022-07-31T15:39:50.183Z,149
2022-07-31T15:40:59.356Z,162
2022-07-31T15:42:08.529Z,201
2022-07-31T15:43:17.696Z,168
2022-07-31T15:44:26.875Z,177
2022-07-31T15:45:36.044Z,146
2022-07-31T15:46:45.241Z,185
2022-07-31T15:47:54.412Z,172
2022-07-31T15:49:03.562Z,28
2022-07-31T15:50:12.735Z,124
2022-07-31T15:51:21.915Z,192
2022-07-31T15:52:30.105Z,208
2022-07-31T15:53:39.265Z,193
2022-07-31T15:54:48.442Z,147
2022-07-31T15:55:57.611Z,171
2022-07-31T15:57:06.785Z,163
2022-07-31T15:58:15.983Z,170
2022-07-31T15:59:25.141Z,166